Terminal Aerodrome Forecast
Issued by NWS

Home | Current Version | Previous Version | Text Only | Print | Product List | Glossary On
Versions: 1 2 3 4 5 6 7 8 9 10 11 12
000
FTUS42 KTAE 032339
TAFABY
TAF
KABY 032339Z 0400/0424 05008KT P6SM OVC080
     FM040800 09010KT P6SM OVC050
     FM041400 10010G16KT P6SM OVC025
     FM041900 13007KT 4SM -RA OVC020=

USA.gov is the U.S. government's official web portal to all federal, state and local government web resources and services.